sensor_id;sensor_type;location;lat;lon;timestamp;P1;durP1;ratioP1;P2;durP2;ratioP2
41799;SDS011;27468;47.460;19.034;2022-11-03T00:04:09;30.88;;;15.65;;
41799;SDS011;27468;47.460;19.034;2022-11-03T00:06:40;32.08;;;15.82;;
41799;SDS011;27468;47.460;19.034;2022-11-03T00:09:08;31.08;;;15.70;;
41799;SDS011;27468;47.460;19.034;2022-11-03T00:11:35;35.03;;;17.45;;
41799;SDS011;27468;47.460;19.034;2022-11-03T00:14:02;33.35;;;16.92;;
41799;SDS011;27468;47.460;19.034;2022-11-03T00:16:28;33.45;;;16.98;;
41799;SDS011;27468;47.460;19.034;2022-11-03T00:18:54;31.73;;;16.38;;
41799;SDS011;27468;47.460;19.034;2022-11-03T00:21:20;38.28;;;17.85;;
41799;SDS011;27468;47.460;19.034;2022-11-03T00:23:46;30.75;;;16.35;;
41799;SDS011;27468;47.460;19.034;2022-11-03T00:26:21;36.45;;;17.27;;
41799;SDS011;27468;47.460;19.034;2022-11-03T00:28:49;33.53;;;17.30;;
41799;SDS011;27468;47.460;19.034;2022-11-03T00:31:20;39.03;;;17.55;;
41799;SDS011;27468;47.460;19.034;2022-11-03T00:33:50;35.90;;;18.05;;
41799;SDS011;27468;47.460;19.034;2022-11-03T00:36:21;35.25;;;17.45;;
41799;SDS011;27468;47.460;19.034;2022-11-03T00:38:47;36.28;;;16.98;;
41799;SDS011;27468;47.460;19.034;2022-11-03T00:41:13;37.58;;;17.38;;
41799;SDS011;27468;47.460;19.034;2022-11-03T00:43:58;35.67;;;16.98;;
41799;SDS011;27468;47.460;19.034;2022-11-03T00:46:24;32.60;;;16.58;;
41799;SDS011;27468;47.460;19.034;2022-11-03T00:48:50;35.47;;;17.05;;
41799;SDS011;27468;47.460;19.034;2022-11-03T00:53:42;33.13;;;16.80;;
41799;SDS011;27468;47.460;19.034;2022-11-03T00:56:12;34.17;;;17.63;;
41799;SDS011;27468;47.460;19.034;2022-11-03T00:58:40;34.38;;;16.75;;
41799;SDS011;27468;47.460;19.034;2022-11-03T01:01:25;36.30;;;16.05;;
41799;SDS011;27468;47.460;19.034;2022-11-03T01:03:56;35.92;;;16.63;;
41799;SDS011;27468;47.460;19.034;2022-11-03T01:06:45;34.67;;;17.05;;
41799;SDS011;27468;47.460;19.034;2022-11-03T01:09:16;37.38;;;17.05;;
41799;SDS011;27468;47.460;19.034;2022-11-03T01:11:49;36.70;;;16.77;;
41799;SDS011;27468;47.460;19.034;2022-11-03T01:14:28;35.28;;;16.92;;
41799;SDS011;27468;47.460;19.034;2022-11-03T01:16:56;36.55;;;16.65;;
41799;SDS011;27468;47.460;19.034;2022-11-03T01:19:21;30.40;;;15.57;;
41799;SDS011;27468;47.460;19.034;2022-11-03T01:21:48;34.95;;;16.20;;
41799;SDS011;27468;47.460;19.034;2022-11-03T01:24:13;32.92;;;16.00;;
41799;SDS011;27468;47.460;19.034;2022-11-03T01:26:39;31.13;;;15.45;;
41799;SDS011;27468;47.460;19.034;2022-11-03T01:29:04;31.83;;;15.32;;
41799;SDS011;27468;47.460;19.034;2022-11-03T01:31:30;28.65;;;14.75;;
41799;SDS011;27468;47.460;19.034;2022-11-03T01:33:55;32.33;;;14.60;;
41799;SDS011;27468;47.460;19.034;2022-11-03T01:36:21;28.58;;;14.13;;
41799;SDS011;27468;47.460;19.034;2022-11-03T01:38:47;30.95;;;14.98;;
41799;SDS011;27468;47.460;19.034;2022-11-03T01:41:14;28.67;;;13.80;;
41799;SDS011;27468;47.460;19.034;2022-11-03T01:43:42;27.08;;;13.50;;
41799;SDS011;27468;47.460;19.034;2022-11-03T01:48:46;23.83;;;12.90;;
41799;SDS011;27468;47.460;19.034;2022-11-03T01:51:23;24.00;;;11.50;;
41799;SDS011;27468;47.460;19.034;2022-11-03T01:53:52;23.95;;;11.40;;
41799;SDS011;27468;47.460;19.034;2022-11-03T01:56:20;21.17;;;11.18;;
41799;SDS011;27468;47.460;19.034;2022-11-03T01:58:46;17.33;;;8.63;;
41799;SDS011;27468;47.460;19.034;2022-11-03T02:01:15;20.75;;;11.05;;
41799;SDS011;27468;47.460;19.034;2022-11-03T02:03:42;21.70;;;10.80;;
41799;SDS011;27468;47.460;19.034;2022-11-03T02:06:13;22.88;;;10.85;;
41799;SDS011;27468;47.460;19.034;2022-11-03T02:08:42;22.35;;;10.80;;
41799;SDS011;27468;47.460;19.034;2022-11-03T02:11:12;19.70;;;10.57;;
41799;SDS011;27468;47.460;19.034;2022-11-03T02:13:56;21.50;;;11.02;;
41799;SDS011;27468;47.460;19.034;2022-11-03T02:16:21;22.88;;;11.02;;
41799;SDS011;27468;47.460;19.034;2022-11-03T02:18:49;21.73;;;11.23;;
41799;SDS011;27468;47.460;19.034;2022-11-03T02:23:51;20.95;;;9.93;;
41799;SDS011;27468;47.460;19.034;2022-11-03T02:26:34;21.05;;;9.75;;
41799;SDS011;27468;47.460;19.034;2022-11-03T02:29:00;19.88;;;10.63;;
41799;SDS011;27468;47.460;19.034;2022-11-03T02:31:31;19.27;;;9.43;;
41799;SDS011;27468;47.460;19.034;2022-11-03T02:36:26;17.42;;;9.82;;
41799;SDS011;27468;47.460;19.034;2022-11-03T02:39:01;16.77;;;9.95;;
41799;SDS011;27468;47.460;19.034;2022-11-03T02:41:30;21.48;;;10.00;;
41799;SDS011;27468;47.460;19.034;2022-11-03T02:43:59;14.57;;;8.52;;
41799;SDS011;27468;47.460;19.034;2022-11-03T02:46:26;12.82;;;7.10;;
41799;SDS011;27468;47.460;19.034;2022-11-03T02:48:55;14.43;;;7.10;;
41799;SDS011;27468;47.460;19.034;2022-11-03T02:51:21;8.07;;;5.07;;
41799;SDS011;27468;47.460;19.034;2022-11-03T02:53:53;11.60;;;6.22;;
41799;SDS011;27468;47.460;19.034;2022-11-03T02:56:33;16.13;;;6.57;;
41799;SDS011;27468;47.460;19.034;2022-11-03T02:59:28;16.55;;;6.40;;
41799;SDS011;27468;47.460;19.034;2022-11-03T03:02:08;11.80;;;6.03;;
41799;SDS011;27468;47.460;19.034;2022-11-03T03:07:43;7.65;;;3.80;;
41799;SDS011;27468;47.460;19.034;2022-11-03T03:10:15;6.68;;;3.50;;
41799;SDS011;27468;47.460;19.034;2022-11-03T03:12:48;6.95;;;3.72;;
41799;SDS011;27468;47.460;19.034;2022-11-03T03:15:16;6.45;;;4.00;;
41799;SDS011;27468;47.460;19.034;2022-11-03T03:17:44;9.20;;;4.50;;
41799;SDS011;27468;47.460;19.034;2022-11-03T03:20:23;9.07;;;4.15;;
41799;SDS011;27468;47.460;19.034;2022-11-03T03:23:17;8.48;;;4.65;;
41799;SDS011;27468;47.460;19.034;2022-11-03T03:25:52;9.20;;;4.95;;
41799;SDS011;27468;47.460;19.034;2022-11-03T03:28:23;9.77;;;4.82;;
41799;SDS011;27468;47.460;19.034;2022-11-03T03:30:54;11.45;;;5.25;;
41799;SDS011;27468;47.460;19.034;2022-11-03T03:33:21;9.35;;;4.78;;
41799;SDS011;27468;47.460;19.034;2022-11-03T03:35:50;11.55;;;5.45;;
41799;SDS011;27468;47.460;19.034;2022-11-03T03:38:19;8.73;;;5.10;;
41799;SDS011;27468;47.460;19.034;2022-11-03T03:40:50;9.68;;;5.30;;
41799;SDS011;27468;47.460;19.034;2022-11-03T03:43:17;9.88;;;5.43;;
41799;SDS011;27468;47.460;19.034;2022-11-03T03:45:44;11.32;;;5.70;;
41799;SDS011;27468;47.460;19.034;2022-11-03T03:48:11;12.30;;;6.15;;
41799;SDS011;27468;47.460;19.034;2022-11-03T03:50:37;12.50;;;6.75;;
41799;SDS011;27468;47.460;19.034;2022-11-03T03:53:09;12.18;;;6.95;;
41799;SDS011;27468;47.460;19.034;2022-11-03T03:55:42;13.77;;;7.40;;
41799;SDS011;27468;47.460;19.034;2022-11-03T03:58:11;17.75;;;7.90;;
41799;SDS011;27468;47.460;19.034;2022-11-03T04:00:38;18.23;;;8.30;;
41799;SDS011;27468;47.460;19.034;2022-11-03T04:03:04;17.63;;;8.73;;
41799;SDS011;27468;47.460;19.034;2022-11-03T04:05:30;14.27;;;8.15;;
41799;SDS011;27468;47.460;19.034;2022-11-03T04:07:55;18.98;;;8.68;;
41799;SDS011;27468;47.460;19.034;2022-11-03T04:10:22;21.90;;;9.40;;
41799;SDS011;27468;47.460;19.034;2022-11-03T04:12:49;17.90;;;8.77;;
41799;SDS011;27468;47.460;19.034;2022-11-03T04:15:33;20.52;;;9.18;;
41799;SDS011;27468;47.460;19.034;2022-11-03T04:18:18;21.20;;;8.93;;
41799;SDS011;27468;47.460;19.034;2022-11-03T04:21:03;17.80;;;9.15;;
41799;SDS011;27468;47.460;19.034;2022-11-03T04:23:48;19.27;;;8.93;;
41799;SDS011;27468;47.460;19.034;2022-11-03T04:26:15;22.58;;;10.20;;
41799;SDS011;27468;47.460;19.034;2022-11-03T04:28:41;20.52;;;9.88;;
41799;SDS011;27468;47.460;19.034;2022-11-03T04:31:13;21.77;;;10.70;;
41799;SDS011;27468;47.460;19.034;2022-11-03T04:33:41;21.33;;;10.40;;
41799;SDS011;27468;47.460;19.034;2022-11-03T04:36:17;26.25;;;11.85;;
41799;SDS011;27468;47.460;19.034;2022-11-03T04:38:46;21.20;;;10.18;;
41799;SDS011;27468;47.460;19.034;2022-11-03T04:41:20;19.35;;;9.98;;
41799;SDS011;27468;47.460;19.034;2022-11-03T04:43:48;21.88;;;10.27;;
41799;SDS011;27468;47.460;19.034;2022-11-03T04:46:14;21.98;;;10.18;;
41799;SDS011;27468;47.460;19.034;2022-11-03T04:48:42;19.80;;;9.82;;
41799;SDS011;27468;47.460;19.034;2022-11-03T04:51:12;25.75;;;10.90;;
41799;SDS011;27468;47.460;19.034;2022-11-03T04:53:42;22.27;;;12.23;;
41799;SDS011;27468;47.460;19.034;2022-11-03T04:56:12;23.20;;;10.65;;
41799;SDS011;27468;47.460;19.034;2022-11-03T04:58:41;20.65;;;10.55;;
41799;SDS011;27468;47.460;19.034;2022-11-03T05:01:11;22.90;;;10.70;;
41799;SDS011;27468;47.460;19.034;2022-11-03T05:03:37;26.15;;;10.98;;
41799;SDS011;27468;47.460;19.034;2022-11-03T05:08:44;23.60;;;10.27;;
41799;SDS011;27468;47.460;19.034;2022-11-03T05:14:02;23.25;;;10.57;;
41799;SDS011;27468;47.460;19.034;2022-11-03T05:16:31;21.42;;;11.27;;
41799;SDS011;27468;47.460;19.034;2022-11-03T05:18:57;23.98;;;10.95;;
41799;SDS011;27468;47.460;19.034;2022-11-03T05:21:24;23.63;;;11.13;;
41799;SDS011;27468;47.460;19.034;2022-11-03T05:23:52;21.50;;;10.63;;
41799;SDS011;27468;47.460;19.034;2022-11-03T05:26:30;24.55;;;11.05;;
41799;SDS011;27468;47.460;19.034;2022-11-03T05:29:40;22.25;;;10.35;;
41799;SDS011;27468;47.460;19.034;2022-11-03T05:31:50;25.10;;;10.63;;
41799;SDS011;27468;47.460;19.034;2022-11-03T05:39:42;25.05;;;11.75;;
41799;SDS011;27468;47.460;19.034;2022-11-03T05:44:48;24.08;;;11.35;;
41799;SDS011;27468;47.460;19.034;2022-11-03T05:47:22;24.42;;;11.90;;
41799;SDS011;27468;47.460;19.034;2022-11-03T05:49:50;23.92;;;11.23;;
41799;SDS011;27468;47.460;19.034;2022-11-03T05:52:23;28.08;;;12.23;;
41799;SDS011;27468;47.460;19.034;2022-11-03T05:54:51;25.13;;;11.20;;
41799;SDS011;27468;47.460;19.034;2022-11-03T05:57:20;23.75;;;11.75;;
41799;SDS011;27468;47.460;19.034;2022-11-03T05:59:46;21.20;;;11.32;;
41799;SDS011;27468;47.460;19.034;2022-11-03T06:02:21;23.92;;;11.90;;
41799;SDS011;27468;47.460;19.034;2022-11-03T06:04:48;25.30;;;10.88;;
41799;SDS011;27468;47.460;19.034;2022-11-03T06:09:54;22.42;;;11.35;;
41799;SDS011;27468;47.460;19.034;2022-11-03T06:12:20;22.88;;;11.65;;
41799;SDS011;27468;47.460;19.034;2022-11-03T06:14:46;22.55;;;11.27;;
41799;SDS011;27468;47.460;19.034;2022-11-03T06:17:26;24.05;;;11.35;;
41799;SDS011;27468;47.460;19.034;2022-11-03T06:19:53;25.15;;;11.80;;
41799;SDS011;27468;47.460;19.034;2022-11-03T06:22:24;26.00;;;12.20;;
41799;SDS011;27468;47.460;19.034;2022-11-03T06:24:58;23.73;;;11.93;;
41799;SDS011;27468;47.460;19.034;2022-11-03T06:27:27;27.58;;;12.68;;
41799;SDS011;27468;47.460;19.034;2022-11-03T06:29:58;25.02;;;12.82;;
41799;SDS011;27468;47.460;19.034;2022-11-03T06:32:27;23.73;;;13.25;;
41799;SDS011;27468;47.460;19.034;2022-11-03T06:34:54;21.33;;;12.43;;
41799;SDS011;27468;47.460;19.034;2022-11-03T06:37:23;22.38;;;12.05;;
41799;SDS011;27468;47.460;19.034;2022-11-03T06:39:52;24.30;;;11.60;;
41799;SDS011;27468;47.460;19.034;2022-11-03T06:42:22;22.58;;;12.30;;
41799;SDS011;27468;47.460;19.034;2022-11-03T06:44:48;20.85;;;11.90;;
41799;SDS011;27468;47.460;19.034;2022-11-03T06:47:19;18.85;;;11.88;;
41799;SDS011;27468;47.460;19.034;2022-11-03T06:49:47;20.65;;;12.70;;
41799;SDS011;27468;47.460;19.034;2022-11-03T06:52:19;25.42;;;13.05;;
41799;SDS011;27468;47.460;19.034;2022-11-03T06:54:52;23.60;;;11.70;;
41799;SDS011;27468;47.460;19.034;2022-11-03T06:57:23;22.23;;;11.80;;
41799;SDS011;27468;47.460;19.034;2022-11-03T06:59:49;17.30;;;10.98;;
41799;SDS011;27468;47.460;19.034;2022-11-03T07:02:31;19.80;;;11.30;;
41799;SDS011;27468;47.460;19.034;2022-11-03T07:05:05;20.33;;;11.50;;
41799;SDS011;27468;47.460;19.034;2022-11-03T07:07:41;23.50;;;12.02;;
41799;SDS011;27468;47.460;19.034;2022-11-03T07:10:07;25.75;;;12.02;;
41799;SDS011;27468;47.460;19.034;2022-11-03T07:12:32;17.08;;;10.77;;
41799;SDS011;27468;47.460;19.034;2022-11-03T07:14:58;19.23;;;10.57;;
41799;SDS011;27468;47.460;19.034;2022-11-03T07:17:24;22.13;;;10.40;;
41799;SDS011;27468;47.460;19.034;2022-11-03T07:19:49;22.50;;;11.18;;
41799;SDS011;27468;47.460;19.034;2022-11-03T07:22:21;21.13;;;10.50;;
41799;SDS011;27468;47.460;19.034;2022-11-03T07:24:51;48.50;;;13.10;;
41799;SDS011;27468;47.460;19.034;2022-11-03T07:27:25;37.08;;;12.13;;
41799;SDS011;27468;47.460;19.034;2022-11-03T07:29:56;24.55;;;12.25;;
41799;SDS011;27468;47.460;19.034;2022-11-03T07:32:28;22.55;;;10.05;;
41799;SDS011;27468;47.460;19.034;2022-11-03T07:35:43;19.75;;;10.55;;
41799;SDS011;27468;47.460;19.034;2022-11-03T07:37:46;23.90;;;12.82;;
41799;SDS011;27468;47.460;19.034;2022-11-03T07:40:15;22.13;;;13.47;;
41799;SDS011;27468;47.460;19.034;2022-11-03T07:42:43;26.77;;;13.30;;
41799;SDS011;27468;47.460;19.034;2022-11-03T07:48:03;26.67;;;13.60;;
41799;SDS011;27468;47.460;19.034;2022-11-03T07:50:39;28.15;;;13.35;;
41799;SDS011;27468;47.460;19.034;2022-11-03T07:53:09;33.35;;;15.77;;
41799;SDS011;27468;47.460;19.034;2022-11-03T07:55:38;26.27;;;14.13;;
41799;SDS011;27468;47.460;19.034;2022-11-03T07:58:12;28.23;;;13.80;;
41799;SDS011;27468;47.460;19.034;2022-11-03T08:00:51;30.88;;;14.98;;
41799;SDS011;27468;47.460;19.034;2022-11-03T08:03:55;31.35;;;15.80;;
41799;SDS011;27468;47.460;19.034;2022-11-03T08:06:13;30.15;;;15.15;;
41799;SDS011;27468;47.460;19.034;2022-11-03T08:08:39;29.42;;;13.80;;
41799;SDS011;27468;47.460;19.034;2022-11-03T08:11:05;30.50;;;15.05;;
41799;SDS011;27468;47.460;19.034;2022-11-03T08:13:30;30.52;;;14.75;;
41799;SDS011;27468;47.460;19.034;2022-11-03T08:15:56;29.48;;;15.27;;
41799;SDS011;27468;47.460;19.034;2022-11-03T08:18:22;30.15;;;15.40;;
41799;SDS011;27468;47.460;19.034;2022-11-03T08:20:48;31.45;;;14.93;;
41799;SDS011;27468;47.460;19.034;2022-11-03T08:23:13;31.88;;;16.42;;
41799;SDS011;27468;47.460;19.034;2022-11-03T08:25:38;32.15;;;16.00;;
41799;SDS011;27468;47.460;19.034;2022-11-03T08:28:04;34.53;;;16.30;;
41799;SDS011;27468;47.460;19.034;2022-11-03T08:30:29;34.25;;;16.80;;
41799;SDS011;27468;47.460;19.034;2022-11-03T08:32:55;31.83;;;15.50;;
41799;SDS011;27468;47.460;19.034;2022-11-03T08:35:20;36.58;;;15.85;;
41799;SDS011;27468;47.460;19.034;2022-11-03T08:37:46;29.77;;;14.55;;
41799;SDS011;27468;47.460;19.034;2022-11-03T08:40:11;32.42;;;15.10;;
41799;SDS011;27468;47.460;19.034;2022-11-03T08:42:37;33.58;;;15.95;;
41799;SDS011;27468;47.460;19.034;2022-11-03T08:45:03;40.13;;;16.38;;
41799;SDS011;27468;47.460;19.034;2022-11-03T08:47:29;32.72;;;16.02;;
41799;SDS011;27468;47.460;19.034;2022-11-03T08:49:54;31.17;;;15.35;;
41799;SDS011;27468;47.460;19.034;2022-11-03T08:52:20;33.85;;;16.23;;
41799;SDS011;27468;47.460;19.034;2022-11-03T08:54:45;30.02;;;15.85;;
41799;SDS011;27468;47.460;19.034;2022-11-03T08:57:11;33.13;;;16.40;;
41799;SDS011;27468;47.460;19.034;2022-11-03T08:59:36;32.05;;;15.65;;
41799;SDS011;27468;47.460;19.034;2022-11-03T09:02:02;34.67;;;17.85;;
41799;SDS011;27468;47.460;19.034;2022-11-03T09:04:28;33.60;;;16.58;;
41799;SDS011;27468;47.460;19.034;2022-11-03T09:06:53;32.97;;;17.25;;
41799;SDS011;27468;47.460;19.034;2022-11-03T09:09:19;30.85;;;15.75;;
41799;SDS011;27468;47.460;19.034;2022-11-03T09:11:45;33.75;;;15.30;;
41799;SDS011;27468;47.460;19.034;2022-11-03T09:14:11;36.58;;;17.83;;
41799;SDS011;27468;47.460;19.034;2022-11-03T09:16:36;35.55;;;16.58;;
41799;SDS011;27468;47.460;19.034;2022-11-03T09:19:02;35.05;;;17.52;;
41799;SDS011;27468;47.460;19.034;2022-11-03T09:21:27;35.33;;;17.00;;
41799;SDS011;27468;47.460;19.034;2022-11-03T09:23:53;35.95;;;17.02;;
41799;SDS011;27468;47.460;19.034;2022-11-03T09:26:18;35.55;;;17.42;;
41799;SDS011;27468;47.460;19.034;2022-11-03T09:28:44;34.25;;;16.85;;
41799;SDS011;27468;47.460;19.034;2022-11-03T09:31:09;33.85;;;17.08;;
41799;SDS011;27468;47.460;19.034;2022-11-03T09:33:35;33.60;;;16.23;;
41799;SDS011;27468;47.460;19.034;2022-11-03T09:36:01;33.17;;;16.20;;
41799;SDS011;27468;47.460;19.034;2022-11-03T09:38:26;37.80;;;17.65;;
41799;SDS011;27468;47.460;19.034;2022-11-03T09:40:52;36.03;;;17.80;;
41799;SDS011;27468;47.460;19.034;2022-11-03T09:43:18;36.22;;;18.58;;
41799;SDS011;27468;47.460;19.034;2022-11-03T09:45:44;41.80;;;19.73;;
41799;SDS011;27468;47.460;19.034;2022-11-03T09:48:10;39.53;;;18.80;;
41799;SDS011;27468;47.460;19.034;2022-11-03T09:50:37;34.42;;;17.02;;
41799;SDS011;27468;47.460;19.034;2022-11-03T09:53:03;34.63;;;17.77;;
41799;SDS011;27468;47.460;19.034;2022-11-03T09:55:28;34.17;;;16.63;;
41799;SDS011;27468;47.460;19.034;2022-11-03T09:57:54;35.53;;;17.10;;
41799;SDS011;27468;47.460;19.034;2022-11-03T10:00:24;33.13;;;15.70;;
41799;SDS011;27468;47.460;19.034;2022-11-03T10:02:51;34.95;;;16.90;;
41799;SDS011;27468;47.460;19.034;2022-11-03T10:05:19;33.78;;;16.70;;
41799;SDS011;27468;47.460;19.034;2022-11-03T10:10:17;34.88;;;17.17;;
41799;SDS011;27468;47.460;19.034;2022-11-03T10:12:45;38.53;;;17.33;;
41799;SDS011;27468;47.460;19.034;2022-11-03T10:15:16;34.90;;;17.45;;
41799;SDS011;27468;47.460;19.034;2022-11-03T10:17:43;35.92;;;18.25;;
41799;SDS011;27468;47.460;19.034;2022-11-03T10:20:10;36.58;;;18.02;;
41799;SDS011;27468;47.460;19.034;2022-11-03T10:22:41;40.28;;;19.20;;
41799;SDS011;27468;47.460;19.034;2022-11-03T10:25:27;37.95;;;18.35;;
41799;SDS011;27468;47.460;19.034;2022-11-03T10:30:46;38.83;;;18.85;;
41799;SDS011;27468;47.460;19.034;2022-11-03T10:36:06;39.03;;;18.67;;
41799;SDS011;27468;47.460;19.034;2022-11-03T10:38:39;37.08;;;17.52;;
41799;SDS011;27468;47.460;19.034;2022-11-03T10:43:42;35.33;;;17.20;;
41799;SDS011;27468;47.460;19.034;2022-11-03T10:48:36;38.55;;;18.88;;
41799;SDS011;27468;47.460;19.034;2022-11-03T10:51:02;39.35;;;17.58;;
41799;SDS011;27468;47.460;19.034;2022-11-03T10:53:28;40.78;;;19.48;;
41799;SDS011;27468;47.460;19.034;2022-11-03T10:55:53;37.47;;;19.23;;
41799;SDS011;27468;47.460;19.034;2022-11-03T10:58:20;38.20;;;18.00;;
41799;SDS011;27468;47.460;19.034;2022-11-03T11:00:45;36.75;;;18.20;;
41799;SDS011;27468;47.460;19.034;2022-11-03T11:03:11;38.28;;;17.77;;
41799;SDS011;27468;47.460;19.034;2022-11-03T11:05:43;35.67;;;17.75;;
41799;SDS011;27468;47.460;19.034;2022-11-03T11:08:09;38.15;;;18.77;;
41799;SDS011;27468;47.460;19.034;2022-11-03T11:10:35;36.35;;;18.58;;
41799;SDS011;27468;47.460;19.034;2022-11-03T11:15:51;40.40;;;18.50;;
41799;SDS011;27468;47.460;19.034;2022-11-03T11:20:51;39.40;;;20.02;;
41799;SDS011;27468;47.460;19.034;2022-11-03T11:28:40;39.25;;;18.20;;
41799;SDS011;27468;47.460;19.034;2022-11-03T11:31:40;35.22;;;18.00;;
41799;SDS011;27468;47.460;19.034;2022-11-03T11:36:37;40.38;;;19.60;;
41799;SDS011;27468;47.460;19.034;2022-11-03T11:39:11;36.95;;;18.75;;
41799;SDS011;27468;47.460;19.034;2022-11-03T11:45:19;40.58;;;18.75;;
41799;SDS011;27468;47.460;19.034;2022-11-03T11:52:30;40.70;;;18.67;;
41799;SDS011;27468;47.460;19.034;2022-11-03T11:55:04;43.60;;;19.08;;
41799;SDS011;27468;47.460;19.034;2022-11-03T11:57:32;40.38;;;19.75;;
41799;SDS011;27468;47.460;19.034;2022-11-03T11:59:59;40.22;;;19.75;;
41799;SDS011;27468;47.460;19.034;2022-11-03T12:02:28;44.28;;;20.15;;
41799;SDS011;27468;47.460;19.034;2022-11-03T12:04:58;42.83;;;19.77;;
41799;SDS011;27468;47.460;19.034;2022-11-03T12:07:34;41.17;;;19.33;;
41799;SDS011;27468;47.460;19.034;2022-11-03T12:10:07;38.85;;;20.63;;
41799;SDS011;27468;47.460;19.034;2022-11-03T12:12:33;40.42;;;18.85;;
41799;SDS011;27468;47.460;19.034;2022-11-03T12:14:59;42.47;;;19.92;;
41799;SDS011;27468;47.460;19.034;2022-11-03T12:19:50;41.47;;;19.15;;
41799;SDS011;27468;47.460;19.034;2022-11-03T12:24:52;40.67;;;18.92;;
41799;SDS011;27468;47.460;19.034;2022-11-03T12:27:20;41.90;;;20.55;;
41799;SDS011;27468;47.460;19.034;2022-11-03T12:30:07;42.22;;;19.70;;
41799;SDS011;27468;47.460;19.034;2022-11-03T12:32:37;40.78;;;20.48;;
41799;SDS011;27468;47.460;19.034;2022-11-03T12:35:03;43.05;;;21.52;;
41799;SDS011;27468;47.460;19.034;2022-11-03T12:37:32;44.05;;;19.92;;
41799;SDS011;27468;47.460;19.034;2022-11-03T12:39:57;48.10;;;21.27;;
41799;SDS011;27468;47.460;19.034;2022-11-03T12:42:22;45.72;;;21.17;;
41799;SDS011;27468;47.460;19.034;2022-11-03T12:44:49;46.83;;;21.92;;
41799;SDS011;27468;47.460;19.034;2022-11-03T12:47:14;41.90;;;20.98;;
41799;SDS011;27468;47.460;19.034;2022-11-03T12:49:40;42.05;;;20.88;;
41799;SDS011;27468;47.460;19.034;2022-11-03T12:52:05;44.65;;;21.48;;
41799;SDS011;27468;47.460;19.034;2022-11-03T12:54:32;47.63;;;22.50;;
41799;SDS011;27468;47.460;19.034;2022-11-03T12:56:58;54.20;;;22.65;;
41799;SDS011;27468;47.460;19.034;2022-11-03T12:59:23;48.13;;;21.60;;
41799;SDS011;27468;47.460;19.034;2022-11-03T13:01:49;52.65;;;23.50;;
41799;SDS011;27468;47.460;19.034;2022-11-03T13:04:14;49.70;;;23.20;;
41799;SDS011;27468;47.460;19.034;2022-11-03T13:06:40;46.03;;;22.02;;
41799;SDS011;27468;47.460;19.034;2022-11-03T13:09:05;48.20;;;21.90;;
41799;SDS011;27468;47.460;19.034;2022-11-03T13:11:30;44.85;;;22.00;;
41799;SDS011;27468;47.460;19.034;2022-11-03T13:14:14;51.20;;;22.77;;
41799;SDS011;27468;47.460;19.034;2022-11-03T13:16:40;51.10;;;21.95;;
41799;SDS011;27468;47.460;19.034;2022-11-03T13:19:05;45.72;;;22.73;;
41799;SDS011;27468;47.460;19.034;2022-11-03T13:21:30;49.05;;;20.85;;
41799;SDS011;27468;47.460;19.034;2022-11-03T13:23:56;48.60;;;21.52;;
41799;SDS011;27468;47.460;19.034;2022-11-03T13:26:21;50.05;;;22.25;;
41799;SDS011;27468;47.460;19.034;2022-11-03T13:28:46;49.97;;;22.70;;
41799;SDS011;27468;47.460;19.034;2022-11-03T13:31:12;46.85;;;21.08;;
41799;SDS011;27468;47.460;19.034;2022-11-03T13:33:38;45.85;;;22.42;;
41799;SDS011;27468;47.460;19.034;2022-11-03T13:36:03;45.85;;;21.85;;
41799;SDS011;27468;47.460;19.034;2022-11-03T13:38:29;40.63;;;20.33;;
41799;SDS011;27468;47.460;19.034;2022-11-03T13:40:54;39.70;;;19.98;;
41799;SDS011;27468;47.460;19.034;2022-11-03T13:43:20;42.95;;;21.38;;
41799;SDS011;27468;47.460;19.034;2022-11-03T13:45:45;39.20;;;20.25;;
41799;SDS011;27468;47.460;19.034;2022-11-03T13:48:11;40.97;;;20.45;;
41799;SDS011;27468;47.460;19.034;2022-11-03T13:50:36;39.75;;;20.73;;
41799;SDS011;27468;47.460;19.034;2022-11-03T13:53:01;42.15;;;21.48;;
41799;SDS011;27468;47.460;19.034;2022-11-03T13:55:27;47.30;;;23.58;;
41799;SDS011;27468;47.460;19.034;2022-11-03T13:57:52;45.17;;;24.60;;
41799;SDS011;27468;47.460;19.034;2022-11-03T14:00:18;42.25;;;20.92;;
41799;SDS011;27468;47.460;19.034;2022-11-03T14:02:43;39.35;;;20.35;;
41799;SDS011;27468;47.460;19.034;2022-11-03T14:05:09;35.80;;;16.40;;
41799;SDS011;27468;47.460;19.034;2022-11-03T14:07:35;38.17;;;17.85;;
41799;SDS011;27468;47.460;19.034;2022-11-03T14:10:01;32.38;;;17.40;;
41799;SDS011;27468;47.460;19.034;2022-11-03T14:12:27;34.17;;;18.35;;
41799;SDS011;27468;47.460;19.034;2022-11-03T14:14:55;35.35;;;17.83;;
41799;SDS011;27468;47.460;19.034;2022-11-03T14:17:20;36.55;;;18.40;;
41799;SDS011;27468;47.460;19.034;2022-11-03T14:19:46;31.40;;;17.17;;
41799;SDS011;27468;47.460;19.034;2022-11-03T14:22:11;35.85;;;18.50;;
41799;SDS011;27468;47.460;19.034;2022-11-03T14:24:37;35.28;;;18.75;;
41799;SDS011;27468;47.460;19.034;2022-11-03T14:27:02;38.00;;;18.63;;
41799;SDS011;27468;47.460;19.034;2022-11-03T14:29:28;37.22;;;18.90;;
41799;SDS011;27468;47.460;19.034;2022-11-03T14:31:53;37.15;;;18.77;;
41799;SDS011;27468;47.460;19.034;2022-11-03T14:34:18;40.35;;;20.67;;
41799;SDS011;27468;47.460;19.034;2022-11-03T14:36:44;36.13;;;19.73;;
41799;SDS011;27468;47.460;19.034;2022-11-03T14:39:09;35.78;;;18.35;;
41799;SDS011;27468;47.460;19.034;2022-11-03T14:41:34;35.38;;;18.77;;
41799;SDS011;27468;47.460;19.034;2022-11-03T14:44:18;31.52;;;17.50;;
41799;SDS011;27468;47.460;19.034;2022-11-03T14:46:44;34.85;;;19.08;;
41799;SDS011;27468;47.460;19.034;2022-11-03T14:49:09;33.28;;;18.50;;
41799;SDS011;27468;47.460;19.034;2022-11-03T14:51:35;36.70;;;19.25;;
41799;SDS011;27468;47.460;19.034;2022-11-03T14:54:00;37.33;;;20.70;;
41799;SDS011;27468;47.460;19.034;2022-11-03T14:56:25;40.67;;;20.67;;
41799;SDS011;27468;47.460;19.034;2022-11-03T14:58:51;34.25;;;19.13;;
41799;SDS011;27468;47.460;19.034;2022-11-03T15:01:17;34.67;;;19.50;;
41799;SDS011;27468;47.460;19.034;2022-11-03T15:03:43;42.88;;;21.10;;
41799;SDS011;27468;47.460;19.034;2022-11-03T15:06:08;42.63;;;22.25;;
41799;SDS011;27468;47.460;19.034;2022-11-03T15:08:35;43.85;;;22.15;;
41799;SDS011;27468;47.460;19.034;2022-11-03T15:11:01;40.25;;;21.75;;
41799;SDS011;27468;47.460;19.034;2022-11-03T15:13:27;37.60;;;20.52;;
41799;SDS011;27468;47.460;19.034;2022-11-03T15:15:52;39.10;;;20.60;;
41799;SDS011;27468;47.460;19.034;2022-11-03T15:18:18;38.47;;;20.27;;
41799;SDS011;27468;47.460;19.034;2022-11-03T15:20:43;37.40;;;20.10;;
41799;SDS011;27468;47.460;19.034;2022-11-03T15:23:10;35.90;;;19.80;;
41799;SDS011;27468;47.460;19.034;2022-11-03T15:25:35;39.00;;;20.73;;
41799;SDS011;27468;47.460;19.034;2022-11-03T15:28:00;39.75;;;22.40;;
41799;SDS011;27468;47.460;19.034;2022-11-03T15:30:26;45.00;;;24.75;;
41799;SDS011;27468;47.460;19.034;2022-11-03T15:32:51;44.28;;;23.90;;
41799;SDS011;27468;47.460;19.034;2022-11-03T15:35:17;37.78;;;21.67;;